Scio, Ohio
Current Conditions -  °F | °C
As of 2:53 PM on Monday 24 Nov 2014 (Local Time) from KPHD Reporting Station
Overcast Overcast  
Wind Chill: 61°   Ceiling: 5000
Heat Index: 61°   Visibility: 10mi
Dew Point: 44°   Wind: 22mph
Humidity: 54%   Direction: 240°WSW
Pressure: 29.51"   Gusts: 39mph
Location:  40.4°N, 81.08°W
Report Text: KPHD 241953Z AUTO 24019G34KT 10SM SCT041 BKN050 OVC090 16/07 A2951 RMK AO2 PK WND 21040/1856 RAB07E23 SLP990 P0000 T01610067
Loading
Personal Weather Stations






























Interactive Weather Map New forecast layout! Learn more

10-Day Weather Forecast

Advertisements
Track Severe Weather on mobile